createdAt,value
2017-11-19T00:00:21.436Z,90.57
2017-11-19T00:01:02.014Z,90.67
2017-11-19T00:01:42.574Z,90.57
2017-11-19T00:02:23.145Z,90.67
2017-11-19T00:03:03.704Z,90.76
2017-11-19T00:03:44.280Z,90.48
2017-11-19T00:04:24.855Z,90.67
2017-11-19T00:05:05.417Z,90.57
2017-11-19T00:05:45.981Z,90.48
2017-11-19T00:06:26.562Z,90.76
2017-11-19T00:07:07.143Z,90.76
2017-11-19T00:07:47.729Z,90.76
2017-11-19T00:08:28.295Z,90.38
2017-11-19T00:09:08.864Z,90.95
2017-11-19T00:09:49.432Z,90.57
2017-11-19T00:10:29.992Z,90.86
2017-11-19T00:11:10.583Z,90.76
2017-11-19T00:11:51.157Z,90.48
2017-11-19T00:12:31.815Z,90.76
2017-11-19T00:13:12.386Z,90.86
2017-11-19T00:13:52.949Z,90.95
2017-11-19T00:14:33.543Z,90.95
2017-11-19T00:15:14.110Z,90.95
2017-11-19T00:15:54.688Z,90.86
2017-11-19T00:16:35.291Z,90.76
2017-11-19T00:17:15.868Z,90.67
2017-11-19T00:17:56.469Z,90.76
2017-11-19T00:18:37.047Z,90.67
2017-11-19T00:19:17.635Z,90.67
2017-11-19T00:19:58.234Z,90.86
2017-11-19T00:20:38.821Z,90.38
2017-11-19T00:21:19.414Z,90.67
2017-11-19T00:21:59.996Z,90.38
2017-11-19T00:22:40.570Z,90.38
2017-11-19T00:23:21.232Z,90.48
2017-11-19T00:24:01.903Z,90.57
2017-11-19T00:24:42.551Z,90.38
2017-11-19T00:25:23.198Z,90.76
2017-11-19T00:26:03.781Z,90.86
2017-11-19T00:26:44.410Z,90.86
2017-11-19T00:27:25.016Z,90.86
2017-11-19T00:28:05.596Z,90.95
2017-11-19T00:28:46.161Z,90.48
2017-11-19T00:29:26.739Z,90.86
2017-11-19T00:30:07.331Z,90.19
2017-11-19T00:30:47.986Z,90.38
2017-11-19T00:31:28.593Z,90.29
2017-11-19T00:32:09.188Z,90.67
2017-11-19T00:32:49.861Z,90.48
2017-11-19T00:33:30.553Z,90.86
2017-11-19T00:34:11.319Z,90.86
2017-11-19T00:34:52.001Z,90.76
2017-11-19T00:35:32.718Z,90.95
2017-11-19T00:36:13.445Z,90.48
2017-11-19T00:36:54.052Z,90.48
2017-11-19T00:37:34.691Z,90.48
2017-11-19T00:38:15.314Z,90.48
2017-11-19T00:38:56.139Z,90.67
2017-11-19T00:39:36.766Z,90.29
2017-11-19T00:40:17.371Z,90.29
2017-11-19T00:40:57.949Z,90.67
2017-11-19T00:41:38.561Z,90.57
2017-11-19T00:42:19.200Z,90.1
2017-11-19T00:42:59.814Z,90.29
2017-11-19T00:43:40.510Z,90.19
2017-11-19T00:44:21.275Z,90.38
2017-11-19T00:45:01.869Z,90.67
2017-11-19T00:45:42.492Z,90.95
2017-11-19T00:46:23.147Z,90.67
2017-11-19T00:47:03.759Z,90.76
2017-11-19T00:47:44.349Z,90.62
2017-11-19T00:48:24.917Z,90.76
2017-11-19T00:49:05.506Z,90.48
2017-11-19T00:49:46.121Z,90.34
2017-11-19T00:50:26.712Z,90.72
2017-11-19T00:51:07.295Z,90.86
2017-11-19T00:51:47.890Z,90.57
2017-11-19T00:52:28.450Z,91.24
2017-11-19T00:53:09.026Z,90.62
2017-11-19T00:53:49.601Z,90.81
2017-11-19T00:54:30.190Z,91.19
2017-11-19T00:55:10.769Z,91
2017-11-19T00:55:51.351Z,91
2017-11-19T00:56:32.024Z,91
2017-11-19T00:57:12.642Z,91.09
2017-11-19T00:57:53.256Z,91.28
2017-11-19T00:58:33.886Z,91.19
2017-11-19T00:59:14.517Z,91.09
2017-11-19T00:59:55.121Z,91.28
2017-11-19T01:00:35.704Z,91.57
2017-11-19T01:01:16.291Z,91.47
2017-11-19T01:01:56.929Z,91.57
2017-11-19T01:02:37.548Z,91.47
2017-11-19T01:03:18.115Z,91.47
2017-11-19T01:03:58.692Z,91.47
2017-11-19T01:04:39.298Z,91.47
2017-11-19T01:05:19.899Z,91.76
2017-11-19T01:06:00.509Z,91.47
2017-11-19T01:06:41.105Z,91.47
2017-11-19T01:07:21.837Z,91.47
2017-11-19T01:08:02.445Z,91.38
2017-11-19T01:08:43.031Z,91.47
2017-11-19T01:09:23.612Z,91.76
2017-11-19T01:10:04.255Z,91.66
2017-11-19T01:10:44.985Z,91.85
2017-11-19T01:11:25.547Z,91.47
2017-11-19T01:12:06.181Z,91.66
2017-11-19T01:12:46.866Z,91.38
2017-11-19T01:13:27.497Z,91.38
2017-11-19T01:14:08.099Z,91.57
2017-11-19T01:14:48.717Z,91.38
2017-11-19T01:15:29.284Z,91.47
2017-11-19T01:16:09.884Z,91.38
2017-11-19T01:16:50.470Z,91.28
2017-11-19T01:17:31.595Z,91.76
2017-11-19T01:18:12.142Z,91.57
2017-11-19T01:18:52.742Z,91.85
2017-11-19T01:19:33.306Z,91.57
2017-11-19T01:20:13.887Z,91.85
2017-11-19T01:20:54.464Z,91.76
2017-11-19T01:21:35.057Z,91.76
2017-11-19T01:22:15.667Z,91.76
2017-11-19T01:22:56.247Z,91.95
2017-11-19T01:23:36.830Z,91.85
2017-11-19T01:24:17.403Z,91.95
2017-11-19T01:24:57.975Z,91.47
2017-11-19T01:25:38.539Z,91.76
2017-11-19T01:26:19.100Z,91.85
2017-11-19T01:26:59.669Z,91.76
2017-11-19T01:27:40.236Z,91.57
2017-11-19T01:28:20.834Z,91.76
2017-11-19T01:29:01.410Z,91.85
2017-11-19T01:29:41.980Z,91.66
2017-11-19T01:30:22.564Z,91.66
2017-11-19T01:31:03.119Z,91.76
2017-11-19T01:31:43.691Z,91.38
2017-11-19T01:32:24.249Z,91.66
2017-11-19T01:33:04.826Z,91.76
2017-11-19T01:33:45.412Z,92.23
2017-11-19T01:34:25.992Z,91.76
2017-11-19T01:35:06.545Z,91.76
2017-11-19T01:35:47.157Z,91.76
2017-11-19T01:36:27.731Z,91.76
2017-11-19T01:37:08.300Z,91.76
2017-11-19T01:37:48.852Z,91.47
2017-11-19T01:38:29.424Z,91.95
2017-11-19T01:39:10.042Z,91.76
2017-11-19T01:39:50.594Z,92.14
2017-11-19T01:40:31.159Z,92.14
2017-11-19T01:41:11.731Z,92.04
2017-11-19T01:41:52.297Z,91.85
2017-11-19T01:42:33.011Z,92.14
2017-11-19T01:43:13.562Z,91.85
2017-11-19T01:43:54.147Z,92.23
2017-11-19T01:44:34.714Z,92.23
2017-11-19T01:45:15.267Z,92.04
2017-11-19T01:45:55.850Z,92.61
2017-11-19T01:46:36.435Z,91.85
2017-11-19T01:47:17.014Z,92.33
2017-11-19T01:47:57.618Z,92.42
2017-11-19T01:48:38.167Z,92.42
2017-11-19T01:49:18.718Z,92.23
2017-11-19T01:49:59.287Z,92.61
2017-11-19T01:50:39.865Z,92.33
2017-11-19T01:51:20.425Z,92.33
2017-11-19T01:52:01.012Z,92.42
2017-11-19T01:52:41.582Z,92.61
2017-11-19T01:53:22.166Z,92.33
2017-11-19T01:54:02.761Z,92.33
2017-11-19T01:54:43.348Z,92.33
2017-11-19T01:55:23.935Z,92.23
2017-11-19T01:56:04.498Z,92.14
2017-11-19T01:56:45.075Z,92.14
2017-11-19T01:57:25.676Z,92.33
2017-11-19T01:58:06.237Z,92.33
2017-11-19T01:58:46.786Z,92.23
2017-11-19T01:59:27.380Z,92.33
2017-11-19T02:00:07.970Z,92.33
2017-11-19T02:00:48.544Z,92.42
2017-11-19T02:01:29.141Z,92.42
2017-11-19T02:02:09.720Z,92.61
2017-11-19T02:02:50.338Z,92.14
2017-11-19T02:03:30.916Z,92.61
2017-11-19T02:04:11.479Z,92.61
2017-11-19T02:04:52.103Z,92.14
2017-11-19T02:05:32.706Z,92.04
2017-11-19T02:06:13.282Z,92.04
2017-11-19T02:06:53.842Z,92.23
2017-11-19T02:07:34.435Z,91.95
2017-11-19T02:08:14.997Z,91.47
2017-11-19T02:08:55.607Z,91.47
2017-11-19T02:09:36.192Z,91.66
2017-11-19T02:10:16.775Z,92.33
2017-11-19T02:10:57.365Z,92.14
2017-11-19T02:11:37.903Z,91.76
2017-11-19T02:12:18.493Z,91.66
2017-11-19T02:12:59.079Z,91.47
2017-11-19T02:13:39.675Z,91.66
2017-11-19T02:14:20.222Z,91.76
2017-11-19T02:15:00.809Z,91.66
2017-11-19T02:15:41.390Z,91.95
2017-11-19T02:16:22.011Z,92.04
2017-11-19T02:17:02.616Z,91.76
2017-11-19T02:17:43.179Z,91.76
2017-11-19T02:18:23.759Z,91.38
2017-11-19T02:19:04.342Z,91.57
2017-11-19T02:19:44.911Z,91.85
2017-11-19T02:20:25.519Z,91.38
2017-11-19T02:21:06.076Z,91.66
2017-11-19T02:21:46.680Z,91.47
2017-11-19T02:22:27.214Z,91.85
2017-11-19T02:23:07.777Z,91.66
2017-11-19T02:23:48.345Z,91.76
2017-11-19T02:24:28.922Z,91.28
2017-11-19T02:25:09.487Z,91.47
2017-11-19T02:25:50.061Z,91.47
2017-11-19T02:26:30.645Z,91.66
2017-11-19T02:27:11.198Z,91.47
2017-11-19T02:27:51.777Z,91.76
2017-11-19T02:28:32.381Z,91.47
2017-11-19T02:29:12.989Z,91.47
2017-11-19T02:29:53.537Z,91.47
2017-11-19T02:30:34.149Z,91.47
2017-11-19T02:31:14.838Z,91.28
2017-11-19T02:31:55.405Z,91
2017-11-19T02:32:35.971Z,91.28
2017-11-19T02:33:16.542Z,91.09
2017-11-19T02:33:57.121Z,91.19
2017-11-19T02:34:37.684Z,90.81
2017-11-19T02:35:18.290Z,90.81
2017-11-19T02:35:58.872Z,91
2017-11-19T02:36:39.444Z,91.09
2017-11-19T02:37:20.048Z,91.09
2017-11-19T02:38:00.625Z,91.28
2017-11-19T02:38:41.200Z,91.28
2017-11-19T02:39:21.775Z,91.09
2017-11-19T02:40:02.340Z,91.28
2017-11-19T02:40:42.890Z,91.76
2017-11-19T02:41:23.466Z,91.38
2017-11-19T02:42:04.028Z,91.66
2017-11-19T02:42:44.585Z,91.47
2017-11-19T02:43:25.206Z,91.57
2017-11-19T02:44:05.797Z,91.57
2017-11-19T02:44:46.429Z,91.76
2017-11-19T02:45:26.997Z,91.66
2017-11-19T02:46:07.575Z,91.47
2017-11-19T02:46:48.137Z,91.57
2017-11-19T02:47:28.709Z,91.57
2017-11-19T02:48:09.318Z,91.76
2017-11-19T02:48:49.877Z,91.85
2017-11-19T02:49:30.451Z,91.66
2017-11-19T02:50:11.021Z,91.28
2017-11-19T02:50:51.598Z,91.38
2017-11-19T02:51:32.163Z,91.57
2017-11-19T02:52:12.735Z,91.57
2017-11-19T02:52:53.350Z,91.38
2017-11-19T02:53:33.883Z,91.76
2017-11-19T02:54:14.469Z,91.95
2017-11-19T02:54:55.078Z,91.85
2017-11-19T02:55:35.672Z,91.47
2017-11-19T02:56:16.256Z,91.47
2017-11-19T02:56:56.840Z,91.66
2017-11-19T02:57:37.419Z,92.33
2017-11-19T02:58:18.029Z,92.42
2017-11-19T02:58:58.590Z,92.14
2017-11-19T02:59:39.137Z,91.95
2017-11-19T03:00:19.704Z,92.14
2017-11-19T03:01:00.288Z,92.33
2017-11-19T03:01:40.854Z,92.33
2017-11-19T03:02:21.438Z,92.42
2017-11-19T03:03:02.032Z,92.33
2017-11-19T03:03:42.594Z,92.14
2017-11-19T03:04:23.139Z,92.42
2017-11-19T03:05:03.705Z,91.95
2017-11-19T03:05:44.320Z,91.95
2017-11-19T03:06:24.944Z,92.42
2017-11-19T03:07:05.514Z,92.14
2017-11-19T03:07:46.090Z,91.95
2017-11-19T03:08:26.659Z,91.76
2017-11-19T03:09:07.254Z,91.57
2017-11-19T03:09:47.834Z,91.57
2017-11-19T03:10:28.411Z,91.38
2017-11-19T03:11:09.010Z,91.76
2017-11-19T03:11:49.591Z,92.23
2017-11-19T03:12:30.217Z,92.14
2017-11-19T03:13:10.809Z,91.76
2017-11-19T03:13:51.394Z,92.14
2017-11-19T03:14:31.970Z,91.85
2017-11-19T03:15:12.562Z,91.38
2017-11-19T03:15:53.118Z,91.76
2017-11-19T03:16:33.677Z,92.04
2017-11-19T03:17:14.264Z,92.14
2017-11-19T03:17:54.856Z,91.76
2017-11-19T03:18:35.438Z,92.04
2017-11-19T03:19:16.017Z,92.04
2017-11-19T03:19:56.572Z,92.14
2017-11-19T03:20:37.164Z,91.95
2017-11-19T03:21:17.751Z,92.23
2017-11-19T03:21:58.307Z,92.04
2017-11-19T03:22:38.878Z,91.95
2017-11-19T03:23:19.430Z,92.14
2017-11-19T03:23:59.987Z,91.76
2017-11-19T03:24:40.537Z,92.33
2017-11-19T03:25:21.166Z,91.38
2017-11-19T03:26:01.722Z,91.57
2017-11-19T03:26:42.299Z,91.85
2017-11-19T03:27:22.868Z,91.76
2017-11-19T03:28:03.435Z,91.76
2017-11-19T03:28:44.012Z,91.38
2017-11-19T03:29:24.587Z,91.28
2017-11-19T03:30:05.162Z,91.38
2017-11-19T03:30:45.736Z,91.85
2017-11-19T03:31:26.316Z,91.66
2017-11-19T03:32:06.904Z,91.95
2017-11-19T03:32:47.482Z,91.76
2017-11-19T03:33:28.075Z,91.57
2017-11-19T03:34:08.636Z,91.28
2017-11-19T03:34:49.210Z,91.76
2017-11-19T03:35:29.798Z,91.28
2017-11-19T03:36:10.361Z,91.76
2017-11-19T03:36:50.926Z,91.28
2017-11-19T03:37:31.524Z,91.28
2017-11-19T03:38:12.095Z,91.47
2017-11-19T03:38:52.691Z,91.66
2017-11-19T03:39:33.303Z,91.47
2017-11-19T03:40:13.917Z,91.38
2017-11-19T03:40:54.496Z,91.66
2017-11-19T03:41:35.077Z,91.38
2017-11-19T03:42:15.668Z,90.91
2017-11-19T03:42:56.246Z,91.09
2017-11-19T03:43:36.814Z,91
2017-11-19T03:44:17.374Z,90.81
2017-11-19T03:44:57.926Z,90.43
2017-11-19T03:45:38.491Z,90.81
2017-11-19T03:46:19.054Z,90.72
2017-11-19T03:46:59.640Z,90.81
2017-11-19T03:47:40.211Z,90.53
2017-11-19T03:48:20.771Z,90.91
2017-11-19T03:49:01.338Z,90.91
2017-11-19T03:49:41.923Z,90.53
2017-11-19T03:50:22.509Z,90.34
2017-11-19T03:51:03.069Z,90.62
2017-11-19T03:51:43.627Z,90.62
2017-11-19T03:52:24.199Z,90.34
2017-11-19T03:53:04.776Z,90.15
2017-11-19T03:53:45.356Z,90.15
2017-11-19T03:54:25.909Z,89.77
2017-11-19T03:55:06.471Z,89.96
2017-11-19T03:55:47.047Z,89.96
2017-11-19T03:56:27.660Z,90.05
2017-11-19T03:57:08.227Z,89.86
2017-11-19T03:57:48.799Z,90.15
2017-11-19T03:58:29.382Z,89.96
2017-11-19T03:59:09.971Z,89.86
2017-11-19T03:59:50.560Z,89.96
2017-11-19T04:00:31.134Z,90.15
2017-11-19T04:01:11.720Z,89.77
2017-11-19T04:01:52.291Z,90.05
2017-11-19T04:02:32.865Z,89.39
2017-11-19T04:03:13.437Z,89.2
2017-11-19T04:03:54.016Z,89.58
2017-11-19T04:04:34.595Z,90.05
2017-11-19T04:05:15.151Z,89.96
2017-11-19T04:05:55.712Z,89.96
2017-11-19T04:06:36.276Z,89.39
2017-11-19T04:07:16.862Z,89.29
2017-11-19T04:07:57.433Z,90.15
2017-11-19T04:08:37.993Z,89.58
2017-11-19T04:09:18.555Z,89.96
2017-11-19T04:09:59.149Z,89.67
2017-11-19T04:10:39.719Z,89.67
2017-11-19T04:11:20.331Z,89.58
2017-11-19T04:12:00.932Z,89.67
2017-11-19T04:12:41.537Z,89.67
2017-11-19T04:13:22.119Z,89.77
2017-11-19T04:14:02.684Z,89.67
2017-11-19T04:14:43.245Z,89.67
2017-11-19T04:15:23.833Z,89.2
2017-11-19T04:16:04.411Z,89.2
2017-11-19T04:16:44.991Z,89.2
2017-11-19T04:17:25.605Z,89.58
2017-11-19T04:18:06.164Z,88.92
2017-11-19T04:18:46.729Z,89.01
2017-11-19T04:19:27.305Z,89.11
2017-11-19T04:20:07.876Z,89.11
2017-11-19T04:20:48.461Z,89.39
2017-11-19T04:21:29.081Z,89.77
2017-11-19T04:22:09.663Z,89.39
2017-11-19T04:22:50.244Z,89.2
2017-11-19T04:23:30.796Z,89.29
2017-11-19T04:24:11.459Z,89.01
2017-11-19T04:24:52.046Z,88.92
2017-11-19T04:25:32.607Z,88.92
2017-11-19T04:26:13.184Z,89.11
2017-11-19T04:26:53.785Z,89.11
2017-11-19T04:27:34.364Z,89.01
2017-11-19T04:28:14.938Z,88.92
2017-11-19T04:28:55.496Z,89.2
2017-11-19T04:29:36.106Z,88.82
2017-11-19T04:30:16.710Z,89.11
2017-11-19T04:30:57.297Z,89.29
2017-11-19T04:31:37.857Z,89.2
2017-11-19T04:32:18.420Z,88.63
2017-11-19T04:32:59.025Z,88.54
2017-11-19T04:33:39.589Z,88.63
2017-11-19T04:34:20.147Z,88.73
2017-11-19T04:35:00.731Z,88.63
2017-11-19T04:35:41.294Z,88.25
2017-11-19T04:36:21.856Z,88.44
2017-11-19T04:37:02.433Z,88.54
2017-11-19T04:37:43.043Z,88.63
2017-11-19T04:38:23.636Z,88.73
2017-11-19T04:39:04.247Z,88.63
2017-11-19T04:39:44.822Z,88.92
2017-11-19T04:40:25.458Z,88.73
2017-11-19T04:41:06.048Z,88.92
2017-11-19T04:41:46.640Z,88.73
2017-11-19T04:42:27.243Z,88.82
2017-11-19T04:43:07.821Z,88.92
2017-11-19T04:43:48.409Z,88.92
2017-11-19T04:44:29.017Z,88.54
2017-11-19T04:45:09.578Z,88.54
2017-11-19T04:45:50.147Z,88.44
2017-11-19T04:46:30.720Z,89.29
2017-11-19T04:47:11.285Z,88.54
2017-11-19T04:47:51.881Z,88.35
2017-11-19T04:48:32.428Z,88.73
2017-11-19T04:49:13.022Z,88.92
2017-11-19T04:49:53.593Z,88.06
2017-11-19T04:50:34.184Z,88.82
2017-11-19T04:51:14.769Z,88.82
2017-11-19T04:51:55.344Z,88.92
2017-11-19T04:52:35.933Z,88.63
2017-11-19T04:53:16.520Z,88.44
2017-11-19T04:53:57.079Z,88.92
2017-11-19T04:54:37.650Z,88.92
2017-11-19T04:55:18.223Z,88.63
2017-11-19T04:55:58.801Z,88.73
2017-11-19T04:56:39.395Z,88.73
2017-11-19T04:57:19.986Z,88.82
2017-11-19T04:58:00.566Z,88.16
2017-11-19T04:58:41.151Z,88.82
2017-11-19T04:59:21.751Z,88.35
2017-11-19T05:00:02.319Z,88.73
2017-11-19T05:00:42.894Z,88.25
2017-11-19T05:01:23.511Z,88.16
2017-11-19T05:02:04.104Z,88.73
2017-11-19T05:02:44.670Z,88.63
2017-11-19T05:03:25.237Z,88.16
2017-11-19T05:04:05.803Z,88.16
2017-11-19T05:04:46.375Z,88.25
2017-11-19T05:05:26.960Z,88.06
2017-11-19T05:06:07.536Z,88.06
2017-11-19T05:06:48.129Z,88.25
2017-11-19T05:07:28.685Z,88.44
2017-11-19T05:08:09.253Z,88.25
2017-11-19T05:08:49.841Z,88.25
2017-11-19T05:09:30.411Z,88.06
2017-11-19T05:10:11.048Z,88.35
2017-11-19T05:10:51.617Z,88.06
2017-11-19T05:11:32.198Z,88.25
2017-11-19T05:12:12.789Z,88.44
2017-11-19T05:12:53.447Z,87.97
2017-11-19T05:13:34.043Z,88.06
2017-11-19T05:14:14.632Z,87.87
2017-11-19T05:14:55.231Z,88.16
2017-11-19T05:15:35.840Z,88.16
2017-11-19T05:16:16.390Z,88.06
2017-11-19T05:16:56.961Z,88.06
2017-11-19T05:17:37.524Z,88.16
2017-11-19T05:18:18.099Z,88.16
2017-11-19T05:18:58.706Z,87.87
2017-11-19T05:19:39.269Z,88.06
2017-11-19T05:20:19.869Z,88.06
2017-11-19T05:21:00.446Z,87.97
2017-11-19T05:21:41.028Z,87.77
2017-11-19T05:22:21.570Z,87.77
2017-11-19T05:23:02.157Z,88.06
2017-11-19T05:23:42.708Z,88.06
2017-11-19T05:24:23.281Z,87.97
2017-11-19T05:25:03.859Z,87.87
2017-11-19T05:25:44.418Z,88.06
2017-11-19T05:26:24.974Z,88.06
2017-11-19T05:27:05.559Z,88.16
2017-11-19T05:27:46.126Z,87.87
2017-11-19T05:28:26.691Z,88.06
2017-11-19T05:29:07.279Z,87.97
2017-11-19T05:29:47.851Z,88.44
2017-11-19T05:30:28.429Z,88.06
2017-11-19T05:31:09.026Z,88.06
2017-11-19T05:31:49.638Z,87.87
2017-11-19T05:32:30.217Z,87.97
2017-11-19T05:33:10.793Z,88.16
2017-11-19T05:33:51.370Z,88.06
2017-11-19T05:34:31.941Z,88.16
2017-11-19T05:35:12.526Z,87.77
2017-11-19T05:35:53.104Z,87.77
2017-11-19T05:36:33.693Z,87.97
2017-11-19T05:37:14.286Z,88.16
2017-11-19T05:37:54.869Z,88.16
2017-11-19T05:38:35.498Z,87.97
2017-11-19T05:39:16.065Z,87.68
2017-11-19T05:39:56.654Z,87.87
2017-11-19T05:40:37.212Z,87.68
2017-11-19T05:41:17.788Z,87.77
2017-11-19T05:41:58.354Z,87.59
2017-11-19T05:42:38.929Z,87.77
2017-11-19T05:43:19.503Z,88.16
2017-11-19T05:44:00.073Z,87.68
2017-11-19T05:44:40.648Z,87.68
2017-11-19T05:45:21.226Z,88.06
2017-11-19T05:46:01.807Z,87.59
2017-11-19T05:46:42.382Z,87.77
2017-11-19T05:47:22.962Z,87.87
2017-11-19T05:48:03.536Z,87.59
2017-11-19T05:48:44.193Z,87.87
2017-11-19T05:49:24.772Z,88.06
2017-11-19T05:50:05.352Z,87.77
2017-11-19T05:50:45.921Z,87.87
2017-11-19T05:51:26.480Z,87.77
2017-11-19T05:52:07.068Z,87.87
2017-11-19T05:52:47.633Z,87.77
2017-11-19T05:53:28.202Z,87.87
2017-11-19T05:54:08.764Z,87.87
2017-11-19T05:54:49.345Z,87.77
2017-11-19T05:55:29.914Z,87.59
2017-11-19T05:56:10.475Z,87.68
2017-11-19T05:56:51.071Z,88.16
2017-11-19T05:57:31.643Z,87.87
2017-11-19T05:58:12.218Z,88.06
2017-11-19T05:58:52.798Z,88.06
2017-11-19T05:59:33.369Z,88.44
2017-11-19T06:00:13.941Z,88.44
2017-11-19T06:00:54.529Z,88.16
2017-11-19T06:01:35.106Z,88.06
2017-11-19T06:02:15.725Z,88.16
2017-11-19T06:02:56.327Z,87.97
2017-11-19T06:03:36.883Z,88.06
2017-11-19T06:04:17.455Z,87.87
2017-11-19T06:04:58.025Z,87.87
2017-11-19T06:05:38.627Z,88.44
2017-11-19T06:06:19.218Z,88.63
2017-11-19T06:06:59.885Z,88.82
2017-11-19T06:07:40.457Z,89.11
2017-11-19T06:08:21.028Z,89.58
2017-11-19T06:09:01.592Z,89.58
2017-11-19T06:09:42.153Z,89.96
2017-11-19T06:10:22.730Z,89.96
2017-11-19T06:11:03.303Z,90.24
2017-11-19T06:11:43.894Z,90.34
2017-11-19T06:12:24.501Z,90.53
2017-11-19T06:13:05.104Z,90.62
2017-11-19T06:13:45.689Z,90.72
2017-11-19T06:14:26.265Z,90.72
2017-11-19T06:15:06.818Z,90.62
2017-11-19T06:15:47.399Z,90.81
2017-11-19T06:16:28.020Z,90.72
2017-11-19T06:17:08.585Z,90.62
2017-11-19T06:17:49.169Z,90.53
2017-11-19T06:18:29.739Z,90.62
2017-11-19T06:19:10.314Z,90.81
2017-11-19T06:19:50.879Z,90.81
2017-11-19T06:20:31.446Z,90.91
2017-11-19T06:21:12.023Z,90.43
2017-11-19T06:21:52.600Z,90.81
2017-11-19T06:22:33.178Z,90.53
2017-11-19T06:23:13.732Z,91
2017-11-19T06:23:54.327Z,90.43
2017-11-19T06:24:34.913Z,90.05
2017-11-19T06:25:15.558Z,90.53
2017-11-19T06:25:56.124Z,90.91
2017-11-19T06:26:36.717Z,90.43
2017-11-19T06:27:17.275Z,90.24
2017-11-19T06:27:57.870Z,90.62
2017-11-19T06:28:38.445Z,90.24
2017-11-19T06:29:19.050Z,90.72
2017-11-19T06:29:59.633Z,90.43
2017-11-19T06:30:40.206Z,90.24
2017-11-19T06:31:20.781Z,90.15
2017-11-19T06:32:01.355Z,90.05
2017-11-19T06:32:41.917Z,90.43
2017-11-19T06:33:22.541Z,90.53
2017-11-19T06:34:03.118Z,90.43
2017-11-19T06:34:43.714Z,90.81
2017-11-19T06:35:24.301Z,90.62
2017-11-19T06:36:04.919Z,90.05
2017-11-19T06:36:45.491Z,90.24
2017-11-19T06:37:26.098Z,90.24
2017-11-19T06:38:06.665Z,90.15
2017-11-19T06:38:47.247Z,90.15
2017-11-19T06:39:27.820Z,90.24
2017-11-19T06:40:08.386Z,90.15
2017-11-19T06:40:48.945Z,89.96
2017-11-19T06:41:29.505Z,90.05
2017-11-19T06:42:10.094Z,90.15
2017-11-19T06:42:50.671Z,90.05
2017-11-19T06:43:31.249Z,90.05
2017-11-19T06:44:11.816Z,90.53
2017-11-19T06:44:52.372Z,89.96
2017-11-19T06:45:32.940Z,89.96
2017-11-19T06:46:13.510Z,90.15
2017-11-19T06:46:54.076Z,90.05
2017-11-19T06:47:34.676Z,89.39
2017-11-19T06:48:15.229Z,89.39
2017-11-19T06:48:55.816Z,89.58
2017-11-19T06:49:36.420Z,90.24
2017-11-19T06:50:16.971Z,90.05
2017-11-19T06:50:57.555Z,90.24
2017-11-19T06:51:38.110Z,90.15
2017-11-19T06:52:18.672Z,89.96
2017-11-19T06:52:59.244Z,90.15
2017-11-19T06:53:39.806Z,89.96
2017-11-19T06:54:20.382Z,89.96
2017-11-19T06:55:00.986Z,90.05
2017-11-19T06:55:41.564Z,90.15
2017-11-19T06:56:22.164Z,89.96
2017-11-19T06:57:02.768Z,90.24
2017-11-19T06:57:43.292Z,89.58
2017-11-19T06:58:23.855Z,89.58
2017-11-19T06:59:04.455Z,89.96
2017-11-19T06:59:45.047Z,89.39
2017-11-19T07:00:25.640Z,89.67
2017-11-19T07:01:06.227Z,89.48
2017-11-19T07:01:46.824Z,89.58
2017-11-19T07:02:27.402Z,89.48
2017-11-19T07:03:07.990Z,89.48
2017-11-19T07:03:48.622Z,89.39
2017-11-19T07:04:36.874Z,89.67
2017-11-19T07:05:17.526Z,89.67
2017-11-19T07:05:58.112Z,89.67
2017-11-19T07:06:38.729Z,89.96
2017-11-19T07:07:19.300Z,89.39
2017-11-19T07:07:59.876Z,89.48
2017-11-19T07:08:40.449Z,89.67
2017-11-19T07:09:21.032Z,89.72
2017-11-19T07:10:01.608Z,89.53
2017-11-19T07:10:42.192Z,89.39
2017-11-19T07:11:22.779Z,89.67
2017-11-19T07:12:03.332Z,89.62
2017-11-19T07:12:43.908Z,89.58
2017-11-19T07:13:24.472Z,89.58
2017-11-19T07:14:05.054Z,89.43
2017-11-19T07:14:45.634Z,89.43
2017-11-19T07:15:26.206Z,89.39
2017-11-19T07:16:06.793Z,89.91
2017-11-19T07:16:47.400Z,89.67
2017-11-19T07:17:28.005Z,89.48
2017-11-19T07:18:08.596Z,89.58
2017-11-19T07:18:49.215Z,89.53
2017-11-19T07:19:29.819Z,89.48
2017-11-19T07:20:10.370Z,89.39
2017-11-19T07:20:50.938Z,89.39
2017-11-19T07:21:31.542Z,89.58
2017-11-19T07:22:12.148Z,89.62
2017-11-19T07:22:52.707Z,89.72
2017-11-19T07:23:33.304Z,89.81
2017-11-19T07:24:13.863Z,89.72
2017-11-19T07:24:54.435Z,89.81
2017-11-19T07:25:34.999Z,89.86
2017-11-19T07:26:15.583Z,89.81
2017-11-19T07:26:56.161Z,89.72
2017-11-19T07:27:36.735Z,89.81
2017-11-19T07:28:17.295Z,89.43
2017-11-19T07:28:57.853Z,89.43
2017-11-19T07:29:38.422Z,89.62
2017-11-19T07:30:19.011Z,89.62
2017-11-19T07:30:59.594Z,89.34
2017-11-19T07:31:40.178Z,89.62
2017-11-19T07:32:20.776Z,89.25
2017-11-19T07:33:01.396Z,89.34
2017-11-19T07:33:41.974Z,89.34
2017-11-19T07:34:22.579Z,88.87
2017-11-19T07:35:03.142Z,89.06
2017-11-19T07:35:43.687Z,88.96
2017-11-19T07:36:24.264Z,89.06
2017-11-19T07:37:04.882Z,89.15
2017-11-19T07:37:45.445Z,89.06
2017-11-19T07:38:26.024Z,89.15
2017-11-19T07:39:06.611Z,89.15
2017-11-19T07:39:47.176Z,89.15
2017-11-19T07:40:27.738Z,89.06
2017-11-19T07:41:08.316Z,89.06
2017-11-19T07:41:48.923Z,89.15
2017-11-19T07:42:29.497Z,89.15
2017-11-19T07:43:10.098Z,89.06
2017-11-19T07:43:50.698Z,89.06
2017-11-19T07:44:31.286Z,89.06
2017-11-19T07:45:11.903Z,89.06
2017-11-19T07:45:52.475Z,88.87
2017-11-19T07:46:33.056Z,89.06
2017-11-19T07:47:13.689Z,88.96
2017-11-19T07:47:54.406Z,89.34
2017-11-19T07:48:34.992Z,88.87
2017-11-19T07:49:15.566Z,89.15
2017-11-19T07:49:56.148Z,89.25
2017-11-19T07:50:36.699Z,89.34
2017-11-19T07:51:17.294Z,88.58
2017-11-19T07:51:57.908Z,88.58
2017-11-19T07:52:38.489Z,88.58
2017-11-19T07:53:19.061Z,88.77
2017-11-19T07:53:59.651Z,88.96
2017-11-19T07:54:40.229Z,88.96
2017-11-19T07:55:20.794Z,88.77
2017-11-19T07:56:01.374Z,88.2
2017-11-19T07:56:41.928Z,88.29
2017-11-19T07:57:23.365Z,88.2
2017-11-19T07:58:03.935Z,89.06
2017-11-19T07:58:44.882Z,88.58
2017-11-19T07:59:25.681Z,88.29
2017-11-19T08:00:06.931Z,88.29
2017-11-19T08:00:47.817Z,88.58
2017-11-19T08:01:28.392Z,88.29
2017-11-19T08:02:08.979Z,88.48
2017-11-19T08:02:49.552Z,88.29
2017-11-19T08:03:30.139Z,88.29
2017-11-19T08:04:10.705Z,88.29
2017-11-19T08:04:52.181Z,88.29
2017-11-19T08:05:32.958Z,88.58
2017-11-19T08:06:13.888Z,88.29
2017-11-19T08:06:54.910Z,88.1
2017-11-19T08:07:36.052Z,89.15
2017-11-19T08:08:16.630Z,88.39
2017-11-19T08:08:57.230Z,88.2
2017-11-19T08:09:37.942Z,88.29
2017-11-19T08:10:19.026Z,88.77
2017-11-19T08:10:59.693Z,88.1
2017-11-19T08:11:40.489Z,88.68
2017-11-19T08:12:21.761Z,88.29
2017-11-19T08:13:01.801Z,89.06
2017-11-19T08:13:43.003Z,88.96
2017-11-19T08:14:24.118Z,88.77
2017-11-19T08:15:04.690Z,88.58
2017-11-19T08:15:45.264Z,88.1
2017-11-19T08:16:25.852Z,88.39
2017-11-19T08:17:06.426Z,88.29
2017-11-19T08:17:47.007Z,88.48
2017-11-19T08:18:27.601Z,88.48
2017-11-19T08:19:08.171Z,88.1
2017-11-19T08:19:48.780Z,87.63
2017-11-19T08:20:29.385Z,88.01
2017-11-19T08:21:17.265Z,88.01
2017-11-19T08:21:57.830Z,87.63
2017-11-19T08:22:38.407Z,87.73
2017-11-19T08:23:19.012Z,87.45
2017-11-19T08:23:59.608Z,87.82
2017-11-19T08:24:40.176Z,87.63
2017-11-19T08:25:20.746Z,88.01
2017-11-19T08:26:01.422Z,87.63
2017-11-19T08:26:42.504Z,87.82
2017-11-19T08:27:23.081Z,87.92
2017-11-19T08:28:03.672Z,87.63
2017-11-19T08:28:44.288Z,87.63
2017-11-19T08:29:24.867Z,87.92
2017-11-19T08:30:05.467Z,88.1
2017-11-19T08:30:46.045Z,87.73
2017-11-19T08:31:26.639Z,87.73
2017-11-19T08:32:07.209Z,87.73
2017-11-19T08:32:47.807Z,87.54
2017-11-19T08:33:28.484Z,87.73
2017-11-19T08:34:09.274Z,87.82
2017-11-19T08:34:49.984Z,87.82
2017-11-19T08:35:30.556Z,87.45
2017-11-19T08:36:11.182Z,87.35
2017-11-19T08:36:51.725Z,87.45
2017-11-19T08:37:32.313Z,87.25
2017-11-19T08:38:12.892Z,87.82
2017-11-19T08:38:53.509Z,88.01
2017-11-19T08:39:34.068Z,88.1
2017-11-19T08:40:14.656Z,87.82
2017-11-19T08:40:55.269Z,88.1
2017-11-19T08:41:35.852Z,88.29
2017-11-19T08:42:16.453Z,86.97
2017-11-19T08:42:57.055Z,87.16
2017-11-19T08:43:37.644Z,87.39